Terminal Aerodrome Forecast
Issued by NWS Paducah, KY

Home | Current Version | Previous Version | Text Only | Print | Product List | Glossary Off
Versions: 1 2 3 4 5 6 7 8 9 10 11 12 13 14

000
FTUS43 KPAH 191121
TAFPAH
TAF
KPAH 191121Z 1912/2012 24004KT P6SM SCT060 SCT120
     FM191400 27004KT P6SM FEW030
     FM191700 32005KT P6SM SCT040
     FM200000 VRB02KT P6SM SKC=

USA.gov is the U.S. government's official web portal to all federal, state and local government web resources and services.